Flight Track Log - Related Links

Times and Time Zones

All times are in EDT time to prevent confusion due to time zone crossing. See the N272AY flight status page for this flight to view local times or setup timezone preferences in your user account.

Time Position Orientation Groundspeed Altitude Reporting Facility
EDT Latitude Longitude Course Direction KTS MPH feet Rate Location/Type
Tue 07:15:18 PM 35.1908 -80.9356 72° East 171 197 1,600  Level Atlanta Center
Tue 07:16:31 PM 35.1297 -80.9075 159° South 264 304 3,400 1,925 Climbing Atlanta Center
Tue 07:17:32 PM 35.0922 -80.8353 122° Southeast 300 345 5,900 2,319 Climbing Atlanta Center
Tue 07:18:00 PM 35.2756 -80.5127 30° Northeast  Level FlightAware Approximate
Tue 07:18:30 PM 35.1022 -80.7358 83° East 306 352 8,000  Level Atlanta Center
Tue 07:19:00 PM 35.3493 -80.4064 72° East  Level FlightAware Approximate
Tue 07:19:30 PM 35.1497 -80.6478 57° Northeast 314 361 9,900  Level Atlanta Center
Tue 07:20:00 PM 35.3891 -80.2552 72° East  Level FlightAware Approximate
Tue 07:20:30 PM 35.2036 -80.5539 55° Northeast 321 369 11,100  Level Atlanta Center
Tue 07:21:30 PM 35.2611 -80.4550 55° Northeast 348 400 12,200 1,300 Climbing Atlanta Center
Tue 07:22:30 PM 35.3267 -80.3425 54° Northeast 380 437 13,700 1,775 Climbing Atlanta Center
Tue 07:24:19 PM 35.4381 -80.1247 58° Northeast 422 486 17,200 1,565 Climbing Washington Center
Tue 07:29:28 PM 35.6640 -79.3730 58° Northeast 475 547 24,600 1,390 Climbing FlightAware ADS-B
Tue 07:30:13 PM 35.7080 -79.2640 64° Northeast 481 554 25,400 1,080 Climbing FlightAware ADS-B
Tue 07:31:08 PM 35.7640 -79.1270 63° Northeast 487 560 26,400 947 Climbing FlightAware ADS-B
Tue 07:31:48 PM 35.8040 -79.0270 64° Northeast 495 570 26,900 847 Climbing FlightAware ADS-B
Tue 07:32:33 PM 35.8480 -78.9160 64° Northeast 498 573 27,600 847 Climbing FlightAware ADS-B
Tue 07:33:13 PM 35.8890 -78.8140 64° Northeast 503 579 28,100 825 Climbing FlightAware ADS-B
Tue 07:33:53 PM 35.9310 -78.7080 64° Northeast 508 585 28,700 847 Climbing FlightAware ADS-B
Tue 07:34:38 PM 35.9770 -78.5940 63° Northeast 512 589 29,300 988 Climbing FlightAware ADS-B
Tue 07:35:18 PM 36.0200 -78.4850 64° Northeast 507 583 30,100 1,200 Climbing FlightAware ADS-B
Tue 07:35:58 PM 36.0610 -78.3800 64° Northeast 504 580 30,900 1,059 Climbing FlightAware ADS-B
Tue 07:36:43 PM 36.1060 -78.2660 64° Northeast 503 579 31,600 988 Climbing FlightAware ADS-B
Tue 07:37:23 PM 36.1450 -78.1660 64° Northeast 499 574 32,300 1,341 Climbing FlightAware ADS-B
Tue 07:38:08 PM 36.1910 -78.0500 64° Northeast 484 557 33,500 1,129 Climbing FlightAware ADS-B
Tue 07:38:48 PM 36.2320 -77.9500 63° Northeast 484 557 33,900 565 Climbing FlightAware ADS-B
Tue 07:39:33 PM 36.2940 -77.8560 51° Northeast 481 554 34,300 494 Climbing FlightAware ADS-B
Tue 07:40:13 PM 36.3550 -77.7760 47° Northeast 481 554 34,600 525 Climbing FlightAware ADS-B
Tue 07:40:53 PM 36.4160 -77.6960 47° Northeast 482 555 35,000 282 Climbing FlightAware ADS-B
Tue 07:41:38 PM 36.4870 -77.6020 47° Northeast 483 556 35,000  Level FlightAware ADS-B
Tue 07:42:18 PM 36.5450 -77.5260 46° Northeast 483 556 35,000  Level FlightAware ADS-B
Tue 07:42:53 PM 36.5960 -77.4590 47° Northeast 481 554 35,000  Level FlightAware ADS-B
Tue 07:43:38 PM 36.6600 -77.3760 46° Northeast 481 554 35,000  Level FlightAware ADS-B
Tue 07:44:18 PM 36.7130 -77.3080 46° Northeast 481 554 35,000  Level FlightAware ADS-B
Tue 07:45:08 PM 36.7780 -77.2230 46° Northeast 481 554 35,000  Level FlightAware ADS-B
Tue 07:45:48 PM 36.8310 -77.1550 46° Northeast 481 554 35,000  Level FlightAware ADS-B
Tue 07:46:28 PM 36.8830 -77.0870 46° Northeast 481 554 35,000  Level FlightAware ADS-B
Tue 07:47:08 PM 36.9360 -77.0190 46° Northeast 481 554 35,000  Level FlightAware ADS-B
Tue 07:47:48 PM 36.9880 -76.9510 46° Northeast 481 554 35,000  Level FlightAware ADS-B
Tue 07:48:48 PM 37.1340 -76.7380 49° Northeast 480 552 35,000  Level FlightAware ADS-B
Tue 07:49:48 PM 37.2260 -76.6140 47° Northeast 481 554 35,000  Level FlightAware ADS-B
Tue 07:49:58 PM 37.2485 -76.5825 48° Northeast 480 552 35,000  Level FlightAware ADS-B
Tue 07:50:40 PM 37.3116 -76.4946 48° Northeast 481 554 35,000  Level FlightAware ADS-B
Tue 07:51:13 PM 37.3583 -76.4254 50° Northeast 485 558 35,000  Level FlightAware ADS-B
Tue 07:51:50 PM 37.4129 -76.3445 50° Northeast 486 559 35,000  Level FlightAware ADS-B
Tue 07:52:22 PM 37.4591 -76.2759 50° Northeast 488 562 35,000  Level FlightAware ADS-B
Tue 07:52:53 PM 37.5041 -76.2091 50° Northeast 489 563 35,000  Level FlightAware ADS-B
Tue 07:53:31 PM 37.5592 -76.1269 50° Northeast 490 564 35,000  Level FlightAware ADS-B
Tue 07:54:38 PM 37.6500 -75.9910 50° Northeast 481 554 35,000  Level FlightAware ADS-B
Tue 07:55:23 PM 37.7140 -75.8950 50° Northeast 482 555 35,000  Level FlightAware ADS-B
Tue 07:56:03 PM 37.7710 -75.8090 50° Northeast 482 555 35,000  Level FlightAware ADS-B
Tue 07:56:09 PM 37.7888 -75.7824 50° Northeast 488 562 35,000  Level FlightAware ADS-B
Tue 07:56:43 PM 37.8377 -75.7085 50° Northeast 488 562 35,000  Level FlightAware ADS-B
Tue 07:57:15 PM 37.8834 -75.6394 50° Northeast 488 562 35,000  Level FlightAware ADS-B
Tue 07:57:47 PM 37.9297 -75.5692 50° Northeast 489 563 35,000  Level FlightAware ADS-B
Tue 07:58:53 PM 38.0170 -75.4360 50° Northeast 482 555 35,000  Level FlightAware ADS-B
Tue 07:59:00 PM 38.0358 -75.4077 50° Northeast 489 563 35,000  Level FlightAware ADS-B
Tue 07:59:32 PM 38.0820 -75.3371 50° Northeast 489 563 35,000  Level FlightAware ADS-B
Tue 08:00:02 PM 38.1257 -75.2704 50° Northeast 491 565 35,000  Level FlightAware ADS-B
Tue 08:00:32 PM 38.1690 -75.2040 50° Northeast 491 565 35,000 197 Level FlightAware ADS-B
Tue 08:01:03 PM 38.2133 -75.1359 50° Northeast 495 570 35,200 476 Climbing FlightAware ADS-B
Tue 08:01:35 PM 38.2594 -75.0649 50° Northeast 497 572 35,500 538 Climbing FlightAware ADS-B
Tue 08:02:21 PM 38.3279 -74.9591 50° Northeast 500 575 35,900 468 Climbing FlightAware ADS-B
Tue 08:02:52 PM 38.3726 -74.8898 51° Northeast 502 578 36,100 484 Climbing FlightAware ADS-B
Tue 08:03:23 PM 38.4180 -74.8194 51° Northeast 502 578 36,400 529 Climbing FlightAware ADS-B
Tue 08:04:00 PM 38.4728 -74.7343 51° Northeast 500 575 36,700 514 Climbing FlightAware ADS-B
Tue 08:04:33 PM 38.5206 -74.6597 51° Northeast 498 573 37,000 281 Climbing FlightAware ADS-B
Tue 08:05:04 PM 38.5664 -74.5881 51° Northeast 500 575 37,000  Level FlightAware ADS-B
Tue 08:05:48 PM 38.6308 -74.4872 51° Northeast 500 575 37,000  Level FlightAware ADS-B
Tue 08:06:21 PM 38.6788 -74.4118 51° Northeast 498 573 37,000  Level FlightAware ADS-B
Tue 08:06:56 PM 38.7297 -74.3316 51° Northeast 499 574 37,000  Level FlightAware ADS-B
Tue 08:07:30 PM 38.7789 -74.2540 51° Northeast 501 577 37,000  Level FlightAware ADS-B
Tue 08:08:01 PM 38.8247 -74.1815 51° Northeast 502 578 37,000  Level FlightAware ADS-B
Tue 08:08:32 PM 38.8692 -74.1108 51° Northeast 502 578 37,000  Level FlightAware ADS-B
Tue 08:09:02 PM 38.9132 -74.0410 51° Northeast 504 580 37,000  Level FlightAware ADS-B
Tue 08:09:35 PM 38.9613 -73.9644 51° Northeast 504 580 37,000  Level FlightAware ADS-B
Tue 08:10:06 PM 39.0065 -73.8922 51° Northeast 501 577 37,000  Level FlightAware ADS-B
Tue 08:10:36 PM 39.0503 -73.8222 51° Northeast 499 574 37,000  Level FlightAware ADS-B
Tue 08:11:08 PM 39.0964 -73.7480 51° Northeast 497 572 37,000  Level FlightAware ADS-B
Tue 08:11:39 PM 39.1402 -73.6777 51° Northeast 499 574 37,000  Level FlightAware ADS-B
Tue 08:12:09 PM 39.1836 -73.6078 51° Northeast 498 573 37,000  Level FlightAware ADS-B
Tue 08:12:40 PM 39.2275 -73.5369 51° Northeast 497 572 37,000  Level FlightAware ADS-B
Tue 08:13:10 PM 39.2713 -73.4661 51° Northeast 497 572 37,000  Level FlightAware ADS-B
Tue 08:13:43 PM 39.3171 -73.3918 51° Northeast 495 570 37,000  Level FlightAware ADS-B
Tue 08:14:16 PM 39.3640 -73.3156 51° Northeast 494 568 37,000  Level FlightAware ADS-B
Tue 08:14:49 PM 39.4108 -73.2392 52° Northeast 493 567 37,000  Level FlightAware ADS-B
Tue 08:15:19 PM 39.4535 -73.1697 51° Northeast 494 568 37,000  Level FlightAware ADS-B
Tue 08:15:49 PM 39.4960 -73.1000 52° Northeast 494 568 37,000  Level FlightAware ADS-B
Tue 08:16:24 PM 39.5450 -73.0197 52° Northeast 494 568 37,000  Level FlightAware ADS-B
Tue 08:16:54 PM 39.5887 -72.9477 52° Northeast 495 570 37,000  Level FlightAware ADS-B
Tue 08:17:25 PM 39.6320 -72.8762 52° Northeast 494 568 37,000  Level FlightAware ADS-B
Tue 08:17:59 PM 39.6795 -72.7977 52° Northeast 493 567 37,000  Level FlightAware ADS-B
Tue 08:18:30 PM 39.7235 -72.7248 52° Northeast 492 566 37,000  Level FlightAware ADS-B
Tue 08:19:06 PM 39.7740 -72.6408 52° Northeast 491 565 37,000  Level FlightAware ADS-B
Tue 08:19:38 PM 39.8175 -72.5685 52° Northeast 490 564 37,000  Level FlightAware ADS-B
Tue 08:20:08 PM 39.8600 -72.4975 52° Northeast 487 560 37,000  Level FlightAware ADS-B
Tue 08:20:43 PM 39.9073 -72.4182 52° Northeast 485 558 37,000  Level FlightAware ADS-B
Tue 08:21:17 PM 39.9536 -72.3407 52° Northeast 483 556 37,000  Level FlightAware ADS-B
Tue 08:21:58 PM 40.0060 -72.2520 52° Northeast 485 558 37,000  Level FlightAware ADS-B
Tue 08:22:38 PM 40.0570 -72.1660 52° Northeast 485 558 37,000  Level FlightAware ADS-B
Tue 08:23:23 PM 40.1250 -72.0520 52° Northeast 482 555 37,000  Level FlightAware ADS-B
Tue 08:24:18 PM 40.1930 -71.9360 52° Northeast 484 557 37,000  Level FlightAware ADS-B
Tue 08:24:58 PM 40.2400 -71.8580 52° Northeast 484 557 37,000  Level FlightAware ADS-B
Tue 08:25:58 PM 40.3260 -71.7100 53° Northeast 476 548 37,000  Level FlightAware ADS-B
Tue 08:26:38 PM 40.3720 -71.6330 52° Northeast 476 548 37,000  Level FlightAware ADS-B
Tue 08:27:18 PM 40.4180 -71.5550 52° Northeast 476 548 37,000  Level FlightAware ADS-B
Tue 08:27:58 PM 40.4640 -71.4780 52° Northeast 476 548 37,000  Level FlightAware ADS-B
Tue 08:28:38 PM 40.5100 -71.4000 52° Northeast 476 548 37,000  Level FlightAware ADS-B
Tue 08:29:28 PM 40.5680 -71.3030 52° Northeast 476 548 37,000  Level FlightAware ADS-B
Tue 08:30:08 PM 40.6140 -71.2250 52° Northeast 476 548 37,000  Level FlightAware ADS-B
Tue 08:30:48 PM 40.6600 -71.1470 52° Northeast 476 548 37,000  Level FlightAware ADS-B
Tue 08:31:28 PM 40.7060 -71.0700 52° Northeast 476 548 37,000  Level FlightAware ADS-B
Tue 08:32:13 PM 40.8190 -70.8510 56° Northeast 461 531 37,000  Level FlightAware ADS-B
Tue 08:32:53 PM 40.8710 -70.7600 53° Northeast 460 529 37,000  Level FlightAware ADS-B
Tue 08:33:48 PM 40.9380 -70.6420 53° Northeast 460 529 37,000  Level FlightAware ADS-B
Tue 08:34:33 PM 41.0000 -70.5320 53° Northeast 447 514 37,000  Level FlightAware ADS-B
Tue 08:35:13 PM 41.0480 -70.4470 53° Northeast 445 512 37,000  Level FlightAware ADS-B
Tue 08:35:48 PM 41.0910 -70.3700 53° Northeast 444 511 37,000  Level FlightAware ADS-B
Tue 08:36:33 PM 41.1380 -70.2830 54° Northeast 444 511 37,000  Level FlightAware ADS-B
Tue 08:37:18 PM 41.1980 -70.1770 53° Northeast 443 510 37,000  Level FlightAware ADS-B
Tue 08:38:03 PM 41.2580 -70.0690 54° Northeast 441 507 37,000 -75 Level FlightAware ADS-B
Tue 08:38:38 PM 41.2970 -69.9940 55° Northeast 450 518 36,900 -75 Descending FlightAware ADS-B
Tue 08:39:23 PM 41.3390 -69.9010 59° Northeast 450 518 36,900 -632 Level FlightAware ADS-B
Tue 08:40:13 PM 41.4040 -69.7640 58° Northeast 467 537 35,900 -900 Descending FlightAware ADS-B
Tue 08:41:03 PM 41.4630 -69.6370 58° Northeast 466 536 35,400 -533 Descending FlightAware ADS-B
Tue 08:41:43 PM 41.5090 -69.5380 58° Northeast 469 540 35,100 -282 Descending FlightAware ADS-B
Tue 08:42:28 PM 41.5590 -69.4290 58° Northeast 470 541 35,000 -75 Descending FlightAware ADS-B
Tue 08:43:03 PM 41.5980 -69.3450 58° Northeast 469 540 35,000  Level FlightAware ADS-B
Tue 08:43:53 PM 41.6540 -69.2240 58° Northeast 473 544 35,000  Level FlightAware ADS-B
Tue 08:44:48 PM 41.7160 -69.0860 59° Northeast 471 542 35,000  Level FlightAware ADS-B
Tue 08:45:28 PM 41.7600 -68.9920 58° Northeast 474 545 35,000  Level FlightAware ADS-B
Tue 08:46:23 PM 41.8220 -68.8550 59° Northeast 471 542 35,000  Level FlightAware ADS-B
Tue 08:47:13 PM 41.8820 -68.7190 59° Northeast 470 541 35,000  Level FlightAware ADS-B
Tue 08:47:53 PM 41.9280 -68.6160 59° Northeast 470 541 35,000  Level FlightAware ADS-B
Tue 08:48:33 PM 41.9720 -68.5180 59° Northeast 470 541 35,000  Level FlightAware ADS-B
Tue 08:49:13 PM 42.0170 -68.4180 59° Northeast 471 542 35,000  Level FlightAware ADS-B
Tue 08:49:58 PM 42.0660 -68.3080 59° Northeast 470 541 35,000  Level FlightAware ADS-B
Tue 08:50:43 PM 42.1170 -68.1930 59° Northeast 473 544 35,000  Level FlightAware ADS-B
Tue 08:51:23 PM 42.1620 -68.0910 59° Northeast 473 544 35,000  Level FlightAware ADS-B
Tue 08:51:58 PM 42.1960 -68.0140 59° Northeast 474 545 35,000  Level FlightAware ADS-B
Tue 08:52:48 PM 42.2520 -67.8850 60° Northeast 474 545 35,000  Level FlightAware ADS-B
Tue 08:53:28 PM 42.3020 -67.7710 59° Northeast 473 544 35,000  Level FlightAware ADS-B
Tue 08:54:03 PM 42.3410 -67.6820 59° Northeast 473 544 35,000  Level FlightAware ADS-B
Tue 08:54:48 PM 42.3850 -67.5820 59° Northeast 473 544 35,000  Level FlightAware ADS-B
Tue 08:55:28 PM 42.4230 -67.4960 59° Northeast 473 544 35,000  Level FlightAware ADS-B
Tue 08:56:18 PM 42.4710 -67.3880 59° Northeast 473 544 35,000  Level FlightAware ADS-B
Tue 08:56:58 PM 42.5090 -67.3010 59° Northeast 473 544 35,000  Level FlightAware ADS-B
Tue 08:57:38 PM 42.5470 -67.2150 59° Northeast 473 544 35,000  Level FlightAware ADS-B
Tue 08:58:18 PM 42.5860 -67.1280 59° Northeast 473 544 35,000  Level FlightAware ADS-B
Tue 08:58:58 PM 42.6240 -67.0420 59° Northeast 473 544 35,000  Level FlightAware ADS-B
Tue 08:59:48 PM 42.6720 -66.9330 59° Northeast 473 544 35,000  Level FlightAware ADS-B
Tue 09:00:28 PM 42.7100 -66.8460 59° Northeast 473 544 35,000  Level FlightAware ADS-B
Tue 09:01:08 PM 42.7490 -66.7600 58° Northeast 473 544 35,000  Level FlightAware ADS-B
Tue 09:01:53 PM 42.7980 -66.4050 79° East 492 566 35,000  Level FlightAware ADS-B
Tue 09:02:33 PM 42.8290 -66.2900 70° East 494 568 35,000  Level FlightAware ADS-B
Tue 09:03:13 PM 42.8620 -66.1710 69° East 494 568 35,000  Level FlightAware ADS-B
Tue 09:03:58 PM 42.8970 -66.0400 70° East 494 568 35,000 150 Level FlightAware ADS-B
Tue 09:04:33 PM 42.9250 -65.9350 70° East 493 567 35,200 212 Climbing FlightAware ADS-B
Tue 09:05:23 PM 42.9640 -65.7910 70° East 489 563 35,300 -80 Climbing FlightAware ADS-B
Tue 09:07:03 PM 43.0360 -65.5210 70° East 496 571 35,000 -106 Descending FlightAware ADS-B
Tue 09:08:13 PM 43.0930 -65.3020 70° East 494 568 35,000  Level FlightAware ADS-B
Tue 09:09:33 PM 43.1560 -65.0610 70° East 497 572 35,000  Level FlightAware ADS-B
Tue 09:10:43 PM 43.2100 -64.8540 70° East 499 574 35,000  Level FlightAware ADS-B
Tue 09:11:28 PM 43.2440 -64.7190 71° East 498 573 35,000  Level FlightAware ADS-B
Tue 09:12:13 PM 43.2780 -64.5870 70° East 497 572 35,000  Level FlightAware ADS-B
Tue 09:13:05 PM 43.3170 -64.4340 71° East 497 572 35,000  Level FlightAware ADS-B
Tue 09:13:51 PM 43.3480 -64.3180 70° East 497 572 35,000  Level FlightAware ADS-B
Tue 09:14:34 PM 43.3770 -64.2090 70° East 497 572 35,000  Level FlightAware ADS-B
Tue 09:15:14 PM 43.4030 -64.1080 70° East 497 572 35,000  Level FlightAware ADS-B
Tue 09:15:54 PM 43.4300 -64.0070 70° East 497 572 35,000  Level FlightAware ADS-B
Tue 09:16:34 PM 43.4570 -63.9060 70° East 497 572 35,000  Level FlightAware ADS-B
Tue 09:17:24 PM 43.4900 -63.7790 70° East 497 572 35,000  Level FlightAware ADS-B
Tue 09:18:04 PM 43.5170 -63.6780 70° East 497 572 35,000  Level FlightAware ADS-B
Tue 09:18:44 PM 43.5440 -63.5770 70° East 497 572 35,000  Level FlightAware ADS-B
Tue 09:19:24 PM 43.5710 -63.4750 70° East 497 572 35,000  Level FlightAware ADS-B
Tue 09:20:04 PM 43.5970 -63.3740 70° East 497 572 35,000  Level FlightAware ADS-B
Tue 09:20:54 PM 43.6310 -63.2470 70° East 497 572 35,000  Level FlightAware ADS-B
Tue 09:21:34 PM 43.6570 -63.1460 70° East 497 572 35,000  Level FlightAware ADS-B
Tue 09:22:14 PM 43.6840 -63.0440 70° East 497 572 35,000  Level FlightAware ADS-B
Tue 09:23:12 PM 43.7333 -62.6333 70° East 480 552 35,000  Level Gander Center
Tue 09:24:12 PM 43.7667 -62.4500 76° East 490 564 35,000  Level Gander Center
Tue 09:25:12 PM 43.8167 -62.2667 69° East 480 552 35,000  Level Gander Center
Tue 09:26:12 PM 43.8500 -62.0833 76° East 480 552 35,000  Level Gander Center
Tue 09:27:12 PM 43.9000 -61.9333 65° Northeast 480 552 35,000  Level Gander Center
Tue 09:28:12 PM 43.9500 -61.7500 69° East 480 552 35,000  Level Gander Center
Tue 09:29:12 PM 43.9833 -61.5667 76° East 480 552 35,000  Level Gander Center
Tue 09:30:12 PM 44.0167 -61.4000 74° East 490 564 35,000  Level Gander Center
Tue 09:31:12 PM 44.0667 -61.2167 69° East 490 564 35,000 400 Level Gander Center
Tue 09:32:12 PM 44.1000 -61.0333 76° East 490 564 35,800 700 Climbing Gander Center
Tue 09:33:12 PM 44.1333 -60.8333 77° East 480 552 36,400 600 Climbing Gander Center
Tue 09:34:12 PM 44.1833 -60.6833 65° Northeast 490 564 37,000 500 Climbing Gander Center
Tue 09:35:12 PM 44.2000 -60.4667 84° East 490 564 37,400 450 Climbing Gander Center
Tue 09:36:12 PM 44.2500 -60.3000 67° East 500 575 37,900 450 Climbing Gander Center
Tue 09:37:12 PM 44.2833 -60.1167 76° East 500 575 38,300 400 Climbing Gander Center
Tue 09:38:12 PM 44.3333 -59.9333 69° East 500 575 38,700 350 Climbing Gander Center
Tue 09:39:12 PM 44.3667 -59.7500 76° East 510 587 39,000 150 Climbing Gander Center
Tue 09:40:12 PM 44.4167 -59.5500 71° East 510 587 39,000  Level Gander Center
Tue 09:41:12 PM 44.4500 -59.3667 76° East 510 587 39,000  Level Gander Center
Tue 09:42:12 PM 44.4667 -59.1500 84° East 500 575 39,000  Level Gander Center
Tue 09:43:12 PM 44.5167 -59.0000 65° Northeast 500 575 39,000  Level Gander Center
Tue 09:44:12 PM 44.5500 -58.7833 78° East 510 587 39,000  Level Gander Center
Tue 09:45:12 PM 44.6000 -58.5833 71° East 510 587 39,000  Level Gander Center
Tue 09:46:12 PM 44.6167 -58.4000 83° East 510 587 39,000  Level Gander Center
Tue 09:47:12 PM 44.6667 -58.2167 69° East 510 587 39,000  Level Gander Center
Tue 09:48:12 PM 44.7000 -58.0167 77° East 510 587 39,000  Level Gander Center
Tue 09:49:12 PM 44.7333 -57.8333 76° East 510 587 39,000  Level Gander Center
Tue 09:50:12 PM 44.7667 -57.6167 78° East 510 587 39,000  Level Gander Center
Tue 09:51:12 PM 44.8167 -57.4500 67° East 510 587 39,000  Level Gander Center
Tue 09:52:12 PM 44.8333 -57.2667 83° East 510 587 39,000  Level Gander Center
Tue 09:53:12 PM 44.8833 -57.0500 72° East 510 587 39,000  Level Gander Center
Tue 09:54:12 PM 44.9000 -56.8500 83° East 510 587 39,000  Level Gander Center
Tue 09:55:12 PM 44.9500 -56.6667 69° East 510 587 39,000  Level Gander Center
Tue 09:56:12 PM 44.9833 -56.4667 77° East 500 575 39,000  Level Gander Center
Tue 09:57:12 PM 45.0167 -56.2833 76° East 510 587 39,000  Level Gander Center
Tue 09:59:12 PM 45.0833 -55.9000 76° East 510 587 39,000  Level Gander Center
Tue 10:00:12 PM 45.1167 -55.7000 77° East 510 587 39,000  Level Gander Center
Tue 10:01:12 PM 45.1500 -55.5167 75° East 510 587 39,000  Level Gander Center
Tue 10:07:04 PM 45.3640 -54.4030 75° East 505 581 39,000  Level FlightAware ADS-B
Tue 10:07:49 PM 45.3880 -54.2540 77° East 503 579 39,000  Level FlightAware ADS-B
Tue 10:08:29 PM 45.4080 -54.1320 77° East 503 579 39,000  Level FlightAware ADS-B
Tue 10:09:14 PM 45.4310 -54.0010 76° East 503 579 39,000  Level FlightAware ADS-B
Tue 10:09:54 PM 45.4500 -53.8920 76° East 503 579 39,000  Level FlightAware ADS-B
Tue 10:10:34 PM 45.4690 -53.7820 76° East 503 579 39,000  Level FlightAware ADS-B
Tue 10:11:14 PM 45.4880 -53.6730 76° East 503 579 39,000  Level FlightAware ADS-B
Tue 10:11:54 PM 45.5070 -53.5630 76° East 503 579 39,000  Level FlightAware ADS-B
Tue 10:12:44 PM 45.5310 -53.4260 76° East 503 579 39,000  Level FlightAware ADS-B
Tue 10:13:24 PM 45.5500 -53.3170 76° East 503 579 39,000  Level FlightAware ADS-B
Tue 10:14:04 PM 45.5700 -53.2070 75° East 503 579 39,000  Level FlightAware ADS-B
Tue 10:14:44 PM 45.5890 -53.0970 76° East 503 579 39,000  Level FlightAware ADS-B
Tue 10:15:24 PM 45.6080 -52.9880 76° East 503 579 39,000  Level FlightAware ADS-B
Tue 10:16:14 PM 45.6320 -52.8500 76° East 503 579 39,000  Level FlightAware ADS-B
Tue 10:16:54 PM 45.6510 -52.7410 76° East 503 579 39,000  Level FlightAware ADS-B
Tue 10:17:34 PM 45.6700 -52.6310 76° East 503 579 39,000  Level FlightAware ADS-B
Tue 10:18:14 PM 45.6890 -52.5210 76° East 503 579 39,000  Level FlightAware ADS-B
Tue 10:19:12 PM 45.7000 -52.0000 76° East 500 575 39,000  Level Gander Center
Tue 10:20:12 PM 45.7333 -51.8000 77° East 500 575 39,000  Level Gander Center
Tue 10:21:12 PM 45.7667 -51.6333 74° East 500 575 39,000  Level Gander Center
Tue 10:22:12 PM 45.7833 -51.4167 84° East 490 564 39,000  Level Gander Center
Tue 10:23:12 PM 45.8167 -51.2333 75° East 500 575 39,000  Level Gander Center
Tue 10:24:12 PM 45.8500 -51.0333 76° East 500 575 39,000  Level Gander Center
Tue 10:25:12 PM 45.8667 -50.8333 83° East 490 564 39,000  Level Gander Center
Tue 10:26:12 PM 45.9000 -50.6667 74° East 490 564 39,000  Level Gander Center
Tue 10:27:12 PM 45.9167 -50.4500 84° East 500 575 39,000  Level Gander Center
Tue 10:28:12 PM 45.9333 -50.2667 82° East 500 575 39,000  Level Gander Center
Tue 10:29:12 PM 45.9667 -50.0667 76° East 490 564 39,000  Level Gander Center
Tue 10:30:12 PM 46.0000 -49.8667 76° East 490 564 39,000  Level Gander Center
Tue 10:31:12 PM 46.0500 -49.6833 68° East 490 564 39,000  Level Gander Center
Tue 10:32:12 PM 46.1000 -49.5167 67° East 490 564 39,000  Level Gander Center
Tue 10:33:12 PM 46.1333 -49.3333 75° East 500 575 39,000  Level Gander Center
Tue 10:34:12 PM 46.1667 -49.1333 76° East 490 564 39,000  Level Gander Center
Tue 10:35:12 PM 46.2167 -48.9500 68° East 500 575 39,000  Level Gander Center
Tue 10:36:12 PM 46.2667 -48.7667 68° East 500 575 39,000  Level Gander Center
Tue 10:37:12 PM 46.3167 -48.5833 68° East 500 575 39,000  Level Gander Center
Tue 10:38:12 PM 46.3500 -48.3833 76° East 500 575 39,000  Level Gander Center
Tue 10:39:12 PM 46.4000 -48.2000 68° East 500 575 39,000  Level Gander Center
Tue 10:40:12 PM 46.4500 -48.0167 68° East 490 564 39,000  Level Gander Center
Tue 10:41:12 PM 46.4833 -47.8333 75° East 480 552 39,000  Level Gander Center
Tue 10:42:12 PM 46.5167 -47.6500 75° East 500 575 39,000  Level Gander Center
Tue 10:43:12 PM 46.5667 -47.4500 70° East 480 552 39,000  Level Gander Center
Tue 10:45:12 PM 46.6333 -47.0833 75° East 480 552 39,000  Level Gander Center
Tue 10:48:00 PM 46.7093 -46.7506 71° East  Level FlightAware Approximate
Tue 10:55:00 PM 46.9956 -45.4480 72° East  Level FlightAware Approximate
Tue 10:56:00 PM 47.0353 -45.2608 73° East  Level FlightAware Approximate
Tue 10:57:00 PM 47.0747 -45.0733 73° East  Level FlightAware Approximate
Tue 10:58:00 PM 47.1138 -44.8856 73° East  Level FlightAware Approximate
Tue 10:59:00 PM 47.1525 -44.6975 73° East  Level FlightAware Approximate
Tue 11:00:00 PM 47.1910 -44.5092 73° East  Level FlightAware Approximate
Tue 11:01:00 PM 47.2291 -44.3206 73° East  Level FlightAware Approximate
Tue 11:02:00 PM 47.2670 -44.1318 73° East  Level FlightAware Approximate
Tue 11:03:00 PM 47.3045 -43.9426 74° East  Level FlightAware Approximate
Tue 11:04:00 PM 47.3417 -43.7533 74° East  Level FlightAware Approximate
Tue 11:05:00 PM 47.3786 -43.5636 74° East  Level FlightAware Approximate
Tue 11:06:00 PM 47.4152 -43.3737 74° East  Level FlightAware Approximate
Tue 11:07:00 PM 47.4515 -43.1835 74° East  Level FlightAware Approximate
Tue 11:08:00 PM 47.4875 -42.9930 74° East  Level FlightAware Approximate
Tue 11:09:00 PM 47.5231 -42.8023 74° East  Level FlightAware Approximate
Tue 11:10:00 PM 47.5584 -42.6114 75° East  Level FlightAware Approximate
Tue 11:11:00 PM 47.5933 -42.4195 75° East  Level FlightAware Approximate
Tue 11:12:00 PM 47.6276 -42.2279 75° East  Level FlightAware Approximate
Tue 11:13:00 PM 47.6616 -42.0360 75° East  Level FlightAware Approximate
Tue 11:14:00 PM 47.6952 -41.8439 75° East  Level FlightAware Approximate
Tue 11:15:00 PM 47.7286 -41.6515 75° East  Level FlightAware Approximate
Tue 11:16:00 PM 47.7616 -41.4589 76° East  Level FlightAware Approximate
Tue 11:17:00 PM 47.7943 -41.2660 76° East  Level FlightAware Approximate
Tue 11:18:00 PM 47.8267 -41.0729 76° East  Level FlightAware Approximate
Tue 11:19:00 PM 47.8587 -40.8796 76° East  Level FlightAware Approximate
Tue 11:20:00 PM 47.8905 -40.6860 76° East  Level FlightAware Approximate
Tue 11:21:00 PM 47.9219 -40.4922 76° East  Level FlightAware Approximate
Tue 11:22:00 PM 47.9530 -40.2981 76° East  Level FlightAware Approximate
Tue 11:23:00 PM 47.9837 -40.1038 77° East  Level FlightAware Approximate
Tue 11:24:00 PM 48.0218 -39.9119 70° East  Level FlightAware Approximate
Tue 11:25:00 PM 48.0680 -39.7235 70° East  Level FlightAware Approximate
Tue 11:26:00 PM 48.1140 -39.5348 70° East  Level FlightAware Approximate
Tue 11:27:00 PM 48.1596 -39.3457 70° East  Level FlightAware Approximate
Tue 11:28:00 PM 48.2050 -39.1563 70° East  Level FlightAware Approximate
Tue 11:29:00 PM 48.2500 -38.9665 70° East  Level FlightAware Approximate
Tue 11:30:00 PM 48.2953 -38.7767 70° East  Level FlightAware Approximate
Tue 11:31:00 PM 48.3402 -38.5866 70° East  Level FlightAware Approximate
Tue 11:32:00 PM 48.3848 -38.3961 71° East  Level FlightAware Approximate
Tue 11:33:00 PM 48.4291 -38.2053 71° East  Level FlightAware Approximate
Tue 11:34:00 PM 48.4731 -38.0142 71° East  Level FlightAware Approximate
Tue 11:35:00 PM 48.5168 -37.8227 71° East  Level FlightAware Approximate
Tue 11:36:00 PM 48.5601 -37.6309 71° East  Level FlightAware Approximate
Tue 11:37:00 PM 48.6032 -37.4388 71° East  Level FlightAware Approximate
Tue 11:38:00 PM 48.6459 -37.2463 71° East  Level FlightAware Approximate
Tue 11:39:00 PM 48.6883 -37.0536 72° East  Level FlightAware Approximate
Tue 11:40:00 PM 48.7303 -36.8605 72° East  Level FlightAware Approximate
Tue 11:41:00 PM 48.7721 -36.6670 72° East  Level FlightAware Approximate
Tue 11:42:00 PM 48.8135 -36.4733 72° East  Level FlightAware Approximate
Tue 11:43:00 PM 48.8546 -36.2792 72° East  Level FlightAware Approximate
Tue 11:44:00 PM 48.8954 -36.0849 72° East  Level FlightAware Approximate
Tue 11:45:00 PM 48.9358 -35.8901 72° East  Level FlightAware Approximate
Tue 11:46:00 PM 48.9759 -35.6951 73° East  Level FlightAware Approximate
Tue 11:47:00 PM 49.0157 -35.4998 73° East  Level FlightAware Approximate
Tue 11:48:00 PM 49.0552 -35.3042 73° East  Level FlightAware Approximate
Tue 11:49:00 PM 49.0943 -35.1082 73° East  Level FlightAware Approximate
Tue 11:50:00 PM 49.1331 -34.9120 73° East  Level FlightAware Approximate
Tue 11:51:00 PM 49.1716 -34.7154 73° East  Level FlightAware Approximate
Tue 11:52:00 PM 49.2097 -34.5186 73° East  Level FlightAware Approximate
Tue 11:53:00 PM 49.2475 -34.3214 74° East  Level FlightAware Approximate
Tue 11:54:00 PM 49.2850 -34.1240 74° East  Level FlightAware Approximate
Tue 11:55:00 PM 49.3221 -33.9262 74° East  Level FlightAware Approximate
Tue 11:56:00 PM 49.3588 -33.7281 74° East  Level FlightAware Approximate
Tue 11:57:00 PM 49.3953 -33.5298 74° East  Level FlightAware Approximate
Tue 11:58:00 PM 49.4314 -33.3311 74° East  Level FlightAware Approximate
Tue 11:59:00 PM 49.4672 -33.1322 74° East  Level FlightAware Approximate
Wed 12:00:00 AM 49.5026 -32.9329 75° East  Level FlightAware Approximate
Wed 12:01:00 AM 49.5377 -32.7334 75° East  Level FlightAware Approximate
Wed 12:02:00 AM 49.5726 -32.5337 74° East  Level FlightAware Approximate
Wed 12:03:00 AM 49.6086 -32.3343 74° East  Level FlightAware Approximate
Wed 12:04:00 AM 49.6442 -32.1345 75° East  Level FlightAware Approximate
Wed 12:05:00 AM 49.6794 -31.9345 75° East  Level FlightAware Approximate
Wed 12:06:00 AM 49.7143 -31.7342 75° East  Level FlightAware Approximate
Wed 12:07:00 AM 49.7489 -31.5336 75° East  Level FlightAware Approximate
Wed 12:08:00 AM 49.7831 -31.3327 75° East  Level FlightAware Approximate
Wed 12:09:00 AM 49.8169 -31.1315 75° East  Level FlightAware Approximate
Wed 12:10:00 AM 49.8504 -30.9301 75° East  Level FlightAware Approximate
Wed 12:11:00 AM 49.8836 -30.7283 76° East  Level FlightAware Approximate
Wed 12:12:00 AM 49.9164 -30.5263 76° East  Level FlightAware Approximate
Wed 12:13:00 AM 49.9488 -30.3241 76° East  Level FlightAware Approximate
Wed 12:14:00 AM 49.9809 -30.1215 76° East  Level FlightAware Approximate
Wed 12:15:00 AM 50.0119 -29.9184 77° East  Level FlightAware Approximate
Wed 12:16:00 AM 50.0412 -29.7146 77° East  Level FlightAware Approximate
Wed 12:17:00 AM 50.0702 -29.5105 77° East  Level FlightAware Approximate
Wed 12:18:00 AM 50.0988 -29.3062 78° East  Level FlightAware Approximate
Wed 12:19:00 AM 50.1271 -29.1017 78° East  Level FlightAware Approximate
Wed 12:20:00 AM 50.1550 -28.8969 78° East  Level FlightAware Approximate
Wed 12:21:00 AM 50.1826 -28.6918 78° East  Level FlightAware Approximate
Wed 12:22:00 AM 50.2098 -28.4866 78° East  Level FlightAware Approximate
Wed 12:23:00 AM 50.2366 -28.2811 78° East  Level FlightAware Approximate
Wed 12:24:00 AM 50.2631 -28.0753 79° East  Level FlightAware Approximate
Wed 12:25:00 AM 50.2892 -27.8694 79° East  Level FlightAware Approximate
Wed 12:26:00 AM 50.3149 -27.6632 79° East  Level FlightAware Approximate
Wed 12:27:00 AM 50.3403 -27.4568 79° East  Level FlightAware Approximate
Wed 12:28:00 AM 50.3653 -27.2502 79° East  Level FlightAware Approximate
Wed 12:29:00 AM 50.3899 -27.0433 79° East  Level FlightAware Approximate
Wed 12:30:00 AM 50.4142 -26.8363 79° East  Level FlightAware Approximate
Wed 12:31:00 AM 50.4381 -26.6290 80° East  Level FlightAware Approximate
Wed 12:32:00 AM 50.4617 -26.4216 80° East  Level FlightAware Approximate
Wed 12:33:00 AM 50.4849 -26.2139 80° East  Level FlightAware Approximate
Wed 12:34:00 AM 50.5076 -26.0060 80° East  Level FlightAware Approximate
Wed 12:35:00 AM 50.5301 -25.7979 80° East  Level FlightAware Approximate
Wed 12:36:00 AM 50.5521 -25.5896 80° East  Level FlightAware Approximate
Wed 12:37:00 AM 50.5738 -25.3812 81° East  Level FlightAware Approximate
Wed 12:38:00 AM 50.5951 -25.1725 81° East  Level FlightAware Approximate
Wed 12:39:00 AM 50.6161 -24.9637 81° East  Level FlightAware Approximate
Wed 12:40:00 AM 50.6367 -24.7546 81° East  Level FlightAware Approximate
Wed 12:41:00 AM 50.6568 -24.5454 81° East  Level FlightAware Approximate
Wed 12:42:00 AM 50.6767 -24.3360 81° East  Level FlightAware Approximate
Wed 12:43:00 AM 50.6961 -24.1265 82° East  Level FlightAware Approximate
Wed 12:44:00 AM 50.7152 -23.9167 82° East  Level FlightAware Approximate
Wed 12:45:00 AM 50.7339 -23.7068 82° East  Level FlightAware Approximate
Wed 12:46:00 AM 50.7522 -23.4968 82° East  Level FlightAware Approximate
Wed 12:47:00 AM 50.7701 -23.2865 82° East  Level FlightAware Approximate
Wed 12:48:00 AM 50.7877 -23.0761 82° East  Level FlightAware Approximate
Wed 12:49:00 AM 50.8049 -22.8656 83° East  Level FlightAware Approximate
Wed 12:50:00 AM 50.8217 -22.6549 83° East  Level FlightAware Approximate
Wed 12:51:00 AM 50.8381 -22.4440 83° East  Level FlightAware Approximate
Wed 12:52:00 AM 50.8541 -22.2330 83° East  Level FlightAware Approximate
Wed 12:53:00 AM 50.8698 -22.0219 83° East  Level FlightAware Approximate
Wed 12:54:00 AM 50.8851 -21.8106 83° East  Level FlightAware Approximate
Wed 12:55:00 AM 50.8999 -21.5992 84° East  Level FlightAware Approximate
Wed 12:56:00 AM 50.9145 -21.3876 84° East  Level FlightAware Approximate
Wed 12:57:00 AM 50.9286 -21.1760 84° East  Level FlightAware Approximate
Wed 12:58:00 AM 50.9423 -20.9642 84° East  Level FlightAware Approximate
Wed 12:59:00 AM 50.9557 -20.7522 84° East  Level FlightAware Approximate
Wed 01:00:00 AM 50.9687 -20.5402 84° East  Level FlightAware Approximate
Wed 01:01:00 AM 50.9813 -20.3280 85° East  Level FlightAware Approximate
Wed 01:02:00 AM 50.9935 -20.1157 85° East  Level FlightAware Approximate
Wed 01:03:00 AM 51.0110 -19.9045 80° East  Level FlightAware Approximate
Wed 01:04:00 AM 51.0349 -19.6946 80° East  Level FlightAware Approximate
Wed 01:05:00 AM 51.0585 -19.4845 80° East  Level FlightAware Approximate
Wed 01:06:00 AM 51.0807 -19.2824 80° East  Level FlightAware Approximate
Wed 01:07:00 AM 51.1026 -19.0802 80° East  Level FlightAware Approximate
Wed 01:08:00 AM 51.1242 -18.8778 80° East  Level FlightAware Approximate
Wed 01:09:00 AM 51.1454 -18.6752 80° East  Level FlightAware Approximate
Wed 01:10:00 AM 51.1663 -18.4725 81° East  Level FlightAware Approximate
Wed 01:11:00 AM 51.1868 -18.2695 81° East  Level FlightAware Approximate
Wed 01:12:00 AM 51.2069 -18.0664 81° East  Level FlightAware Approximate
Wed 01:13:00 AM 51.2267 -17.8631 81° East  Level FlightAware Approximate
Wed 01:14:00 AM 51.2462 -17.6596 81° East  Level FlightAware Approximate
Wed 01:15:00 AM 51.2653 -17.4559 81° East  Level FlightAware Approximate
Wed 01:16:00 AM 51.2840 -17.2521 82° East  Level FlightAware Approximate
Wed 01:17:00 AM 51.3024 -17.0481 82° East  Level FlightAware Approximate
Wed 01:18:00 AM 51.3204 -16.8440 82° East  Level FlightAware Approximate
Wed 01:19:00 AM 51.3381 -16.6396 82° East  Level FlightAware Approximate
Wed 01:20:00 AM 51.3554 -16.4352 82° East  Level FlightAware Approximate
Wed 01:21:00 AM 51.3731 -16.2221 82° East  Level FlightAware Approximate
Wed 01:22:00 AM 51.3904 -16.0089 83° East  Level FlightAware Approximate
Wed 01:23:00 AM 51.4072 -15.7955 83° East  Level FlightAware Approximate
Wed 01:24:00 AM 51.4237 -15.5820 83° East  Level FlightAware Approximate
Wed 01:25:00 AM 51.4398 -15.3683 83° East  Level FlightAware Approximate
Wed 01:26:00 AM 51.4556 -15.1545 83° East  Level FlightAware Approximate
Wed 01:27:00 AM 51.4700 -14.9404 85° East  Level FlightAware Approximate
Wed 01:28:00 AM 51.4819 -14.7258 85° East  Level FlightAware Approximate
Wed 01:29:00 AM 51.4976 -14.5118 83° East  Level FlightAware Approximate
Wed 01:30:00 AM 51.5134 -14.2977 83° East  Level FlightAware Approximate
Wed 01:31:00 AM 51.5289 -14.0835 83° East  Level FlightAware Approximate
Wed 01:32:00 AM 51.5439 -13.8691 83° East  Level FlightAware Approximate
Wed 01:33:00 AM 51.5586 -13.6546 84° East  Level FlightAware Approximate
Wed 01:34:00 AM 51.5721 -13.4398 85° East  Level FlightAware Approximate
Wed 01:35:00 AM 51.5843 -13.2248 85° East  Level FlightAware Approximate
Wed 01:36:00 AM 51.5961 -13.0096 85° East  Level FlightAware Approximate
Wed 01:37:00 AM 51.6076 -12.7944 85° East  Level FlightAware Approximate
Wed 01:38:00 AM 51.6186 -12.5790 85° East  Level FlightAware Approximate
Wed 01:38:44 AM 51.4670 -10.8230 85° East 511 588 39,000  Level FlightAware ADS-B
Wed 01:39:00 AM 51.6292 -12.3636 85° East  Level FlightAware Approximate
Wed 01:39:34 AM 51.4830 -10.6530 81° East 511 588 39,000  Level FlightAware ADS-B
Wed 01:40:29 AM 51.5010 -10.4530 82° East 510 587 39,000  Level FlightAware ADS-B
Wed 01:41:49 AM 51.5290 -10.1300 82° East 508 585 39,000  Level FlightAware ADS-B
Wed 01:42:44 AM 51.5470 -9.9160 82° East 510 587 39,000 -181 Level FlightAware ADS-B
Wed 01:45:00 AM 51.5620 -9.4274 87° East  Level Estimated
Wed 01:46:00 AM 51.5681 -9.2118 87° East  Level Estimated
Wed 01:46:14 AM 51.6810 -9.1450 87° East 518 596 38,200  Level FlightAware ADS-B
Wed 01:46:54 AM 51.7020 -8.9800 78° East 518 596 37,500 -2,690 Descending FlightAware ADS-B
Wed 01:47:12 AM 51.7104 -8.9043 78° East 462 532 35,600 -3,667 Descending FlightAware UK
Wed 01:47:30 AM 51.7136 -8.8348 86° East 464 534 35,300 3,545 Descending FlightAware UK
Wed 01:47:34 AM 51.7140 -8.8240 86° East 519 597 36,900 -750 Climbing FlightAware ADS-B
Wed 01:47:54 AM 51.7196 -8.7425 86° East 462 532 35,000 -3,316 Descending FlightAware UK
Wed 01:48:12 AM 51.7242 -8.6730 84° East 464 534 34,800 1,950 Descending FlightAware UK
Wed 01:48:34 AM 51.7280 -8.6090 84° East 523 602 36,300 -429 Climbing FlightAware ADS-B
Wed 01:48:54 AM 51.7346 -8.5102 84° East 462 532 34,500 -2,160 Descending FlightAware UK
Wed 01:49:09 AM 51.7350 -8.4750 84° East 36,000  Climbing FlightAware ADS-B
Wed 01:49:24 AM 51.7382 -8.3928 84° East 462 532 34,500 -2,727 Descending FlightAware UK
Wed 01:49:42 AM 51.7399 -8.3223 88° East 462 532 34,500 2,571 Level FlightAware UK
Wed 01:49:59 AM 51.7410 -8.2880 88° East 525 604 36,000  Climbing FlightAware ADS-B
Wed 01:50:18 AM 51.7443 -8.1807 88° East 462 532 34,500 -2,432 Descending FlightAware UK
Wed 01:50:36 AM 51.7465 -8.1106 87° East 464 534 34,500  Level FlightAware UK
Wed 01:50:54 AM 51.7487 -8.0404 87° East 464 534 34,500  Level FlightAware UK
Wed 01:51:12 AM 51.7509 -7.9704 87° East 464 534 34,500  Level FlightAware UK
Wed 01:51:19 AM 51.7500 -7.9820 87° East 36,000  Climbing FlightAware ADS-B
Wed 01:51:36 AM 51.7534 -7.8771 87° East 464 534 34,500 -2,571 Descending FlightAware UK
Wed 01:51:54 AM 51.7553 -7.8070 88° East 464 534 34,500  Level FlightAware UK
Wed 01:52:12 AM 51.7572 -7.7369 87° East 464 534 34,500 3,000 Level FlightAware UK
Wed 01:52:24 AM 51.7570 -7.7140 87° East 526 605 36,000  Climbing FlightAware ADS-B
Wed 01:52:42 AM 51.7605 -7.6197 87° East 464 534 34,500 -2,500 Descending FlightAware UK
Wed 01:53:00 AM 51.7623 -7.5491 88° East 462 532 34,500  Level FlightAware UK
Wed 01:53:18 AM 51.7640 -7.4785 88° East 462 532 34,500  Level FlightAware UK
Wed 01:53:36 AM 51.7655 -7.4077 88° East 464 534 34,500 4,286 Level FlightAware UK
Wed 01:53:39 AM 51.7650 -7.4070 88° East 529 609 36,000  Climbing FlightAware ADS-B
Wed 01:53:54 AM 51.7670 -7.3368 88° East 466 536 34,500 -2,727 Descending FlightAware UK
Wed 01:54:12 AM 51.7685 -7.2658 88° East 464 534 34,500 3,000 Level FlightAware UK
Wed 01:54:24 AM 51.7690 -7.2270 88° East 529 609 36,000  Climbing FlightAware ADS-B
Wed 01:54:42 AM 51.7707 -7.1475 88° East 462 532 34,500 -2,500 Descending FlightAware UK
Wed 01:55:00 AM 51.7724 -7.0756 88° East 462 532 34,500 4,091 Level FlightAware UK
Wed 01:55:04 AM 51.7730 -7.0790 88° East 531 611 36,000  Climbing FlightAware ADS-B
Wed 01:55:24 AM 51.7742 -6.9808 88° East 462 532 34,500 -2,368 Descending FlightAware UK
Wed 01:55:42 AM 51.7761 -6.9096 88° East 462 532 34,500 4,500 Level FlightAware UK
Wed 01:55:44 AM 51.7760 -6.9080 88° East 532 612 36,000  Climbing FlightAware ADS-B
Wed 01:56:00 AM 51.7777 -6.8384 88° East 464 534 34,500 -2,647 Descending FlightAware UK
Wed 01:56:18 AM 51.7791 -6.7671 88° East 462 532 34,500 3,103 Level FlightAware UK
Wed 01:56:29 AM 51.7790 -6.7370 88° East 533 613 36,000  Climbing FlightAware ADS-B
Wed 01:56:48 AM 51.7812 -6.6482 88° East 464 534 34,500  Descending FlightAware UK
Wed 01:57:04 AM 51.7820 -6.5910 88° East 533 613 36,000  Climbing FlightAware ADS-B
Wed 01:57:06 AM 51.7826 -6.5769 88° East 464 534 34,500 -4,500 Descending FlightAware UK
Wed 01:57:24 AM 51.7815 -6.5054 88° East 468 539 34,500  Level FlightAware UK
Wed 01:57:42 AM 51.7770 -6.4343 96° East 464 534 34,500 3,000 Level FlightAware UK
Wed 01:57:54 AM 51.7760 -6.3940 96° East 531 611 36,000  Climbing FlightAware ADS-B
Wed 01:58:12 AM 51.7725 -6.3159 96° East 464 534 34,500 -2,500 Descending FlightAware UK
Wed 01:58:30 AM 51.7696 -6.2449 94° East 464 534 34,500 4,091 Level FlightAware UK
Wed 01:58:34 AM 51.7690 -6.2360 94° East 531 611 36,000  Climbing FlightAware ADS-B
Wed 01:58:54 AM 51.7660 -6.1505 94° East 464 534 34,500 -2,368 Descending FlightAware UK
Wed 01:59:12 AM 51.7631 -6.0797 94° East 464 534 34,500 4,500 Level FlightAware UK
Wed 01:59:14 AM 51.7630 -6.0950 94° East 530 610 36,000  Climbing FlightAware ADS-B
Wed 01:59:30 AM 51.7603 -6.0090 94° East 462 532 34,500 -2,647 Descending FlightAware UK
Wed 01:59:48 AM 51.7571 -5.9374 94° East 464 534 34,500 3,103 Level FlightAware UK
Wed 01:59:59 AM 51.7550 -5.9020 94° East 530 610 36,000  Climbing FlightAware ADS-B
Wed 02:00:18 AM 51.7517 -5.8194 94° East 464 534 34,500 -2,432 Descending FlightAware UK
Wed 02:00:36 AM 51.7485 -5.7487 94° East 464 534 34,500 4,286 Level FlightAware UK
Wed 02:00:39 AM 51.7480 -5.7420 94° East 529 609 36,000  Climbing FlightAware ADS-B
Wed 02:00:54 AM 51.7451 -5.6780 94° East 464 534 34,500 -2,727 Descending FlightAware UK
Wed 02:01:12 AM 51.7418 -5.6073 94° East 462 532 34,500 3,600 Level FlightAware UK
Wed 02:01:19 AM 51.7410 -5.5970 94° East 529 609 36,000  Climbing FlightAware ADS-B
Wed 02:01:36 AM 51.7373 -5.5130 94° East 462 532 34,500 -2,571 Descending FlightAware UK
Wed 02:01:54 AM 51.7342 -5.4423 94° East 462 532 34,500 3,214 Level FlightAware UK
Wed 02:02:04 AM 51.7330 -5.4190 94° East 530 610 36,000  Climbing FlightAware ADS-B
Wed 02:02:24 AM 51.7285 -5.3243 94° East 462 532 34,500 -2,368 Descending FlightAware UK
Wed 02:02:42 AM 51.7249 -5.2536 95° East 464 534 34,500 4,500 Level FlightAware UK
Wed 02:02:44 AM 51.7250 -5.2580 95° East 532 612 36,000  Climbing FlightAware ADS-B
Wed 02:03:00 AM 51.7213 -5.1818 95° East 464 534 34,500 -2,647 Descending FlightAware UK
Wed 02:03:18 AM 51.7176 -5.1107 95° East 464 534 34,500 3,750 Level FlightAware UK
Wed 02:03:24 AM 51.7170 -5.0950 95° East 532 612 36,000  Climbing FlightAware ADS-B
Wed 02:03:42 AM 51.7127 -5.0159 95° East 466 536 34,500 -2,500 Descending FlightAware UK
Wed 02:04:00 AM 51.7091 -4.9449 95° East 466 536 34,500 3,333 Level FlightAware UK
Wed 02:04:09 AM 51.7080 -4.9210 95° East 530 610 36,000  Climbing FlightAware ADS-B
Wed 02:04:24 AM 51.7041 -4.8505 95° East 466 536 34,500 -2,727 Descending FlightAware UK
Wed 02:04:42 AM 51.7003 -4.7799 95° East 466 536 34,500 3,600 Level FlightAware UK
Wed 02:04:49 AM 51.6990 -4.7640 95° East 527 606 36,000  Climbing FlightAware ADS-B
Wed 02:05:06 AM 51.6952 -4.6860 95° East 464 534 34,500 -2,914 Descending FlightAware UK
Wed 02:05:24 AM 51.6913 -4.6161 95° East 460 529 34,300 2,786 Descending FlightAware UK
Wed 02:05:34 AM 51.6900 -4.5860 95° East 520 598 35,800 -333 Climbing FlightAware ADS-B
Wed 02:06:00 AM 51.6837 -4.4785 95° East 450 518 34,100 -450 Descending FlightAware UK
Wed 02:06:14 AM 51.6810 -4.4360 95° East 521 600 35,500 -581 Climbing FlightAware ADS-B
Wed 02:06:31 AM 51.6772 -4.3624 95° East 452 520 33,800 -3,086 Descending FlightAware UK
Wed 02:06:49 AM 51.6731 -4.2924 95° East 452 520 33,700 3,000 Descending FlightAware UK
Wed 02:06:59 AM 51.6710 -4.2560 95° East 527 606 35,200 -600 Climbing FlightAware ADS-B
Wed 02:07:19 AM 51.6662 -4.1747 95° East 452 520 33,400 -3,316 Descending FlightAware UK
Wed 02:07:37 AM 51.6619 -4.1043 96° East 452 520 33,100 3,600 Descending FlightAware UK
Wed 02:07:39 AM 51.6620 -4.1000 96° East 529 609 34,600 -1,000 Climbing FlightAware ADS-B
Wed 02:07:55 AM 51.6577 -4.0337 96° East 452 520 32,800 -3,706 Descending FlightAware UK
Wed 02:08:13 AM 51.6535 -3.9631 95° East 450 518 32,500 3,000 Descending FlightAware UK
Wed 02:08:19 AM 51.6520 -3.9430 95° East 529 609 34,000 -1,000 Climbing FlightAware ADS-B
Wed 02:08:37 AM 51.6478 -3.8689 95° East 452 520 32,100 -3,286 Descending FlightAware UK
Wed 02:09:01 AM 51.6421 -3.7735 96° East 442 509 31,700 2,444 Descending FlightAware UK
Wed 02:09:04 AM 51.6420 -3.7710 96° East 525 604 33,200 -1,000 Climbing FlightAware ADS-B
Wed 02:09:19 AM 51.6375 -3.7034 96° East 434 499 31,400 -3,818 Descending FlightAware UK
Wed 02:09:37 AM 51.6332 -3.6365 96° East 422 486 31,100 2,200 Descending FlightAware UK
Wed 02:09:49 AM 51.6310 -3.5980 96° East 499 574 32,500 -1,000 Climbing FlightAware ADS-B
Wed 02:10:07 AM 51.6262 -3.5264 96° East 408 470 30,600 -3,500 Descending FlightAware UK
Wed 02:10:25 AM 51.6220 -3.4617 96° East 400 460 30,400 3,545 Descending FlightAware UK
Wed 02:10:29 AM 51.6220 -3.4590 96° East 485 558 31,900 -1,600 Climbing FlightAware ADS-B
Wed 02:10:55 AM 51.6150 -3.3546 96° East 396 456 29,600 -1,500 Descending FlightAware UK
Wed 02:11:09 AM 51.6120 -3.3160 96° East 479 551 30,900 -1,600 Climbing FlightAware ADS-B
Wed 02:11:25 AM 51.6059 -3.2495 96° East 392 451 28,800 -4,412 Descending FlightAware UK
Wed 02:11:43 AM 51.5989 -3.1864 100° East 388 447 28,400 1,862 Descending FlightAware UK
Wed 02:11:54 AM 51.5940 -3.1590 100° East 467 537 29,700 -1,600 Climbing FlightAware ADS-B
Wed 02:12:13 AM 51.5769 -3.0896 100° East 384 442 27,600 -1,500 Descending FlightAware UK
Wed 02:12:34 AM 51.5620 -3.0320 100° East 456 525 28,700 -2,100 Climbing FlightAware ADS-B
Wed 02:13:13 AM 51.5285 -2.9032 100° East 372 428 25,500 -2,400 Descending FlightAware UK
Wed 02:13:14 AM 51.5290 -2.9070 100° East 445 512 27,100 -2,500 Climbing FlightAware ADS-B
Wed 02:13:37 AM 51.5098 -2.8315 100° East 364 419 24,500 -4,829 Descending FlightAware UK
Wed 02:13:55 AM 51.4959 -2.7783 113° Southeast 364 419 23,800 2,182 Descending FlightAware UK
Wed 02:13:59 AM 51.4950 -2.7760 113° Southeast 432 497 25,300 -1,250 Climbing FlightAware ADS-B
Wed 02:14:19 AM 51.4770 -2.7081 113° Southeast 360 414 23,300 -1,200 Descending FlightAware UK
Wed 02:14:34 AM 51.4690 -2.6780 113° Southeast 422 486 24,600 -1,429 Climbing FlightAware ADS-B
Wed 02:15:01 AM 51.4441 -2.5882 113° Southeast 354 407 22,300 -1,500 Descending FlightAware UK
Wed 02:15:14 AM 51.4380 -2.5680 113° Southeast 419 482 23,600 -1,400 Climbing FlightAware ADS-B
Wed 02:15:31 AM 51.4252 -2.5011 113° Southeast 350 403 21,600 -4,000 Descending FlightAware UK
Wed 02:15:50 AM 51.4184 -2.4463 101° East 348 400 21,200 1,548 Descending FlightAware UK
Wed 02:16:02 AM 51.4141 -2.4114 101° East 415 478 22,400 -1,333 Climbing FlightAware ADS-B
Wed 02:16:26 AM 51.4052 -2.3382 101° East 344 396 20,400 -1,167 Descending FlightAware UK
Wed 02:16:38 AM 51.4009 -2.3033 101° East 403 464 21,700 -1,333 Climbing FlightAware ADS-B
Wed 02:17:02 AM 51.3924 -2.2336 101° East 338 389 19,600 -1,355 Descending FlightAware UK
Wed 02:17:09 AM 51.3896 -2.2127 101° East 400 460 21,000 439 Climbing FlightAware ADS-B
Wed 02:17:43 AM 51.3774 -2.1167 101° East 384 442 19,900 -3,736 Descending FlightAware ADS-B
Wed 02:18:02 AM 51.3710 -2.0659 101° East 322 371 17,700 -2,129 Descending FlightAware UK
Wed 02:18:14 AM 51.3672 -2.0345 101° East 367 422 18,800 143 Climbing FlightAware ADS-B
Wed 02:18:44 AM 51.3576 -1.9562 101° East 355 409 17,800 -3,667 Descending FlightAware ADS-B
Wed 02:19:08 AM 51.3498 -1.8940 101° East 314 361 15,500 -1,935 Descending FlightAware UK
Wed 02:19:15 AM 51.3473 -1.8758 101° East 358 412 16,800 1,385 Climbing FlightAware ADS-B
Wed 02:19:34 AM 51.3410 -1.8266 102° East 360 414 16,100 -4,390 Descending FlightAware ADS-B
Wed 02:19:56 AM 51.3363 -1.7699 102° East 322 371 13,800 -1,935 Descending FlightAware UK
Wed 02:20:05 AM 51.3349 -1.7494 102° East 338 389 15,100 882 Climbing FlightAware ADS-B
Wed 02:20:30 AM 51.3311 -1.6873 96° East 330 380 14,300 -1,179 Descending FlightAware ADS-B
Wed 02:21:01 AM 51.3302 -1.6122 91° East 313 360 14,000 -290 Descending FlightAware ADS-B
Wed 02:21:32 AM 51.3290 -1.5440 92° East 293 337 14,000 -1,837 Level FlightAware ADS-B
Wed 02:21:50 AM 51.3284 -1.5049 92° East 268 308 12,500  Descending FlightAware UK
Wed 02:22:03 AM 51.3279 -1.4785 92° East 292 336 14,000  Climbing FlightAware ADS-B
Wed 02:22:20 AM 51.3273 -1.4401 92° East 266 306 12,500  Descending FlightAware UK
Wed 02:22:35 AM 51.3266 -1.4095 92° East 292 336 14,000  Climbing FlightAware ADS-B
Wed 02:22:50 AM 51.3261 -1.3755 92° East 266 306 12,500  Descending FlightAware UK
Wed 02:23:05 AM 51.3254 -1.3459 92° East 281 323 14,000  Climbing FlightAware ADS-B
Wed 02:23:20 AM 51.3249 -1.3136 92° East 256 295 12,500  Descending FlightAware UK
Wed 02:23:36 AM 51.3242 -1.2815 92° East 280 322 14,000  Climbing FlightAware ADS-B
Wed 02:23:56 AM 51.3234 -1.2388 92° East 254 292 12,500  Descending FlightAware UK
Wed 02:24:08 AM 51.3229 -1.2160 92° East 280 322 14,000 -600 Climbing FlightAware ADS-B
Wed 02:24:26 AM 51.3222 -1.1772 92° East 256 295 12,200 -600 Descending FlightAware UK
Wed 02:24:38 AM 51.3217 -1.1544 92° East 277 319 13,700 -400 Climbing FlightAware ADS-B
Wed 02:24:56 AM 51.3210 -1.1158 92° East 254 292 12,000 -400 Descending FlightAware UK
Wed 02:25:08 AM 51.3204 -1.0928 92° East 274 315 13,500 -486 Climbing FlightAware ADS-B
Wed 02:25:33 AM 51.3193 -1.0424 92° East 254 292 11,700 -581 Descending FlightAware UK
Wed 02:25:39 AM 51.3190 -1.0298 92° East 276 318 13,200 -400 Climbing FlightAware ADS-B
Wed 02:26:03 AM 51.3181 -0.9814 92° East 254 292 11,500 -400 Descending FlightAware UK
Wed 02:26:09 AM 51.3177 -0.9679 92° East 276 318 13,000 2,432 Climbing FlightAware ADS-B
Wed 02:26:40 AM 51.3163 -0.9058 92° East 277 319 13,000 -1,778 Level FlightAware ADS-B
Wed 02:27:03 AM 51.3153 -0.8591 92° East 254 292 11,400 -194 Descending FlightAware UK
Wed 02:27:11 AM 51.3148 -0.8416 92° East 275 316 12,900 1,846 Climbing FlightAware ADS-B
Wed 02:27:42 AM 51.3134 -0.7798 92° East 274 315 12,600 -484 Descending FlightAware ADS-B
Wed 02:28:13 AM 51.3120 -0.7180 92° East 273 314 12,400 -2,235 Descending FlightAware ADS-B
Wed 02:28:33 AM 51.3109 -0.6773 92° East 250 288 10,700 -581 Descending FlightAware UK
Wed 02:28:44 AM 51.3104 -0.6548 92° East 273 314 12,100 -400 Climbing FlightAware ADS-B
Wed 02:29:03 AM 51.3095 -0.6167 92° East 250 288 10,500 -200 Descending FlightAware UK
Wed 02:29:14 AM 51.3089 -0.5942 92° East 273 314 12,000 2,143 Climbing FlightAware ADS-B
Wed 02:29:45 AM 51.3073 -0.5316 92° East 271 312 12,000 -2,082 Level FlightAware ADS-B
Wed 02:30:03 AM 51.3064 -0.4960 92° East 248 285 10,300 -581 Descending FlightAware UK
Wed 02:30:16 AM 51.3057 -0.4711 92° East 271 312 11,700 2,438 Climbing FlightAware ADS-B
Wed 02:30:35 AM 51.3045 -0.4332 93° East 270 311 11,600 -3,086 Descending FlightAware ADS-B
Wed 02:30:51 AM 51.3022 -0.4012 93° East 246 283 9,900 -600 Descending FlightAware UK
Wed 02:31:05 AM 51.3004 -0.3736 93° East 268 308 11,300 2,364 Climbing FlightAware ADS-B
Wed 02:31:24 AM 51.2980 -0.3371 96° East 267 307 11,200 -462 Descending FlightAware ADS-B
Wed 02:31:31 AM 51.2961 -0.3224 102° East 267 307 11,100 -706 Descending FlightAware ADS-B
Wed 02:31:41 AM 51.2911 -0.3055 115° Southeast 263 303 11,000 -333 Descending FlightAware ADS-B
Wed 02:31:49 AM 51.2847 -0.2940 131° Southeast 261 300 11,000  Level FlightAware ADS-B
Wed 02:32:00 AM 51.2735 -0.2836 150° Southeast 257 296 11,000  Level FlightAware ADS-B
Wed 02:32:06 AM 51.2667 -0.2808 166° South 254 292 11,000  Level FlightAware ADS-B
Wed 02:32:19 AM 51.2517 -0.2825 184° South 248 285 11,000  Level FlightAware ADS-B
Wed 02:32:25 AM 51.2452 -0.2865 201° Southwest 243 280 11,000  Level FlightAware ADS-B
Wed 02:32:31 AM 51.2402 -0.2914 212° Southwest 241 277 11,000  Level FlightAware ADS-B
Wed 02:32:38 AM 51.2344 -0.3001 223° Southwest 238 274 11,000  Level FlightAware ADS-B
Wed 02:32:50 AM 51.2276 -0.3190 240° Southwest 233 268 11,000  Level FlightAware ADS-B
Wed 02:32:59 AM 51.2257 -0.3339 259° West 233 268 11,000  Level FlightAware ADS-B
Wed 02:33:04 AM 51.2257 -0.3409 270° West 233 268 11,000  Level FlightAware ADS-B
Wed 02:33:09 AM 51.2265 -0.3496 278° West 233 268 11,000  Level FlightAware ADS-B
Wed 02:33:17 AM 51.2293 -0.3626 289° West 233 268 11,000  Level FlightAware ADS-B
Wed 02:33:20 AM 51.2309 -0.3671 300° West 233 268 11,000  Level FlightAware ADS-B
Wed 02:33:29 AM 51.2374 -0.3798 309° West 236 272 11,000 -375 Level FlightAware ADS-B
Wed 02:33:36 AM 51.2434 -0.3871 323° Northwest 238 274 10,900 -4,636 Descending FlightAware ADS-B
Wed 02:33:51 AM 51.2573 -0.4008 323° Northwest 246 283 9,300 -387 Descending FlightAware UK
Wed 02:34:07 AM 51.2722 -0.4150 323° Northwest 237 273 10,700 -500 Climbing FlightAware ADS-B
Wed 02:34:27 AM 51.2910 -0.4330 323° Northwest 244 281 9,000 -600 Descending FlightAware UK
Wed 02:34:37 AM 51.3007 -0.4423 323° Northwest 234 269 10,400 3,900 Climbing FlightAware ADS-B
Wed 02:34:47 AM 51.3096 -0.4497 333° Northwest 236 272 10,300 -400 Descending FlightAware ADS-B
Wed 02:34:52 AM 51.3148 -0.4522 343° North 238 274 10,300 -400 Level FlightAware ADS-B
Wed 02:35:02 AM 51.3265 -0.4534 356° North 247 284 10,200 -400 Descending FlightAware ADS-B
Wed 02:35:07 AM 51.3325 -0.4515 11° North 250 288 10,200 -500 Level FlightAware ADS-B
Wed 02:35:14 AM 51.3392 -0.4470 23° Northeast 255 293 10,100 -857 Descending FlightAware ADS-B
Wed 02:35:21 AM 51.3464 -0.4380 38° Northeast 258 297 10,000 -500 Descending FlightAware ADS-B
Wed 02:35:26 AM 51.3500 -0.4311 50° Northeast 259 298 10,000  Level FlightAware ADS-B
Wed 02:35:33 AM 51.3536 -0.4199 63° Northeast 261 300 10,000  Level FlightAware ADS-B
Wed 02:35:42 AM 51.3559 -0.4030 78° East 263 303 10,000  Level FlightAware ADS-B
Wed 02:35:46 AM 51.3557 -0.3941 92° East 263 303 10,000  Level FlightAware ADS-B
Wed 02:35:49 AM 51.3552 -0.3883 98° East 262 302 10,000  Level FlightAware ADS-B
Wed 02:35:57 AM 51.3521 -0.3748 110° East 260 299 10,000  Level FlightAware ADS-B
Wed 02:36:03 AM 51.3479 -0.3653 125° Southeast 256 295 10,000  Level FlightAware ADS-B
Wed 02:36:09 AM 51.3424 -0.3573 138° Southeast 254 292 10,000  Level FlightAware ADS-B
Wed 02:36:15 AM 51.3364 -0.3510 147° Southeast 253 291 10,000 -3,750 Level FlightAware ADS-B
Wed 02:36:33 AM 51.3183 -0.3338 147° Southeast 242 278 8,500  Descending FlightAware UK
Wed 02:36:52 AM 51.2995 -0.3156 147° Southeast 253 291 10,000 2,500 Climbing FlightAware ADS-B
Wed 02:37:09 AM 51.2829 -0.3001 150° Southeast 252 290 10,000  Level FlightAware ADS-B
Wed 02:37:15 AM 51.2756 -0.2957 159° South 249 287 10,000  Level FlightAware ADS-B
Wed 02:37:35 AM 51.2545 -0.2972 183° South 238 274 10,000  Level FlightAware ADS-B
Wed 02:37:39 AM 51.2505 -0.3002 205° Southwest 235 270 10,000  Level FlightAware ADS-B
Wed 02:37:44 AM 51.2459 -0.3051 214° Southwest 231 266 10,000  Level FlightAware ADS-B
Wed 02:37:54 AM 51.2386 -0.3180 228° Southwest 227 261 10,000  Level FlightAware ADS-B
Wed 02:38:02 AM 51.2349 -0.3306 245° Southwest 224 258 10,000  Level FlightAware ADS-B
Wed 02:38:11 AM 51.2333 -0.3441 259° West 224 258 10,000  Level FlightAware ADS-B
Wed 02:38:14 AM 51.2333 -0.3490 270° West 224 258 10,000  Level FlightAware ADS-B
Wed 02:38:18 AM 51.2337 -0.3553 276° West 225 259 10,000  Level FlightAware ADS-B
Wed 02:38:23 AM 51.2348 -0.3634 282° West 225 259 10,000 -750 Level FlightAware ADS-B
Wed 02:38:26 AM 51.2362 -0.3690 292° West 227 261 9,900 -857 Descending FlightAware ADS-B
Wed 02:38:30 AM 51.2378 -0.3741 297° West 228 262 9,900  Level FlightAware ADS-B
Wed 02:38:35 AM 51.2410 -0.3812 306° West 231 266 9,900 -400 Level FlightAware ADS-B
Wed 02:38:45 AM 51.2496 -0.3930 319° Northwest 236 272 9,800 -692 Descending FlightAware ADS-B
Wed 02:39:01 AM 51.2637 -0.4066 329° Northwest 232 267 9,600 -545 Descending FlightAware ADS-B
Wed 02:39:18 AM 51.2791 -0.4214 329° Northwest 230 265 9,500 -353 Descending FlightAware ADS-B
Wed 02:39:35 AM 51.2953 -0.4370 329° Northwest 230 265 9,400 -400 Descending FlightAware ADS-B
Wed 02:39:48 AM 51.3065 -0.4475 330° Northwest 231 266 9,300 -750 Descending FlightAware ADS-B
Wed 02:39:51 AM 51.3096 -0.4496 336° Northwest 233 268 9,200 -1,714 Descending FlightAware ADS-B
Wed 02:39:55 AM 51.3146 -0.4521 343° North 234 269 9,100 -857 Descending FlightAware ADS-B
Wed 02:39:58 AM 51.3178 -0.4530 349° North 236 272 9,100 -1,000 Level FlightAware ADS-B
Wed 02:40:07 AM 51.3267 -0.4527 North 239 275 8,900 -857 Descending FlightAware ADS-B
Wed 02:40:12 AM 51.3320 -0.4509 12° North 240 276 8,900 -900 Level FlightAware ADS-B
Wed 02:40:27 AM 51.3482 -0.4435 16° North 241 277 8,600 -1,161 Descending FlightAware ADS-B
Wed 02:40:43 AM 51.3660 -0.4353 16° North 241 277 8,300 -828 Descending FlightAware ADS-B
Wed 02:40:56 AM 51.3795 -0.4287 17° North 240 276 8,200 -300 Descending FlightAware ADS-B
Wed 02:41:03 AM 51.3861 -0.4233 27° Northeast 243 280 8,200 -545 Level FlightAware ADS-B
Wed 02:41:07 AM 51.3899 -0.4185 38° Northeast 245 282 8,100 -857 Descending FlightAware ADS-B
Wed 02:41:10 AM 51.3924 -0.4144 46° Northeast 247 284 8,100  Level FlightAware ADS-B
Wed 02:41:15 AM 51.3957 -0.4069 55° Northeast 247 284 8,100 -545 Level FlightAware ADS-B
Wed 02:41:21 AM 51.3984 -0.3974 65° Northeast 248 285 8,000 -600 Descending FlightAware ADS-B
Wed 02:41:25 AM 51.3995 -0.3901 77° East 249 287 8,000  Level FlightAware ADS-B
Wed 02:41:28 AM 51.4000 -0.3838 83° East 250 288 8,000  Level FlightAware ADS-B
Wed 02:41:33 AM 51.4001 -0.3757 89° East 250 288 8,000  Level FlightAware ADS-B
Wed 02:41:49 AM 51.3991 -0.3458 93° East 250 288 8,000  Level FlightAware ADS-B
Wed 02:42:10 AM 51.3976 -0.3070 94° East 250 288 8,000 -486 Level FlightAware ADS-B
Wed 02:42:26 AM 51.3964 -0.2778 94° East 251 289 7,700 -968 Descending FlightAware ADS-B
Wed 02:42:41 AM 51.3951 -0.2496 94° East 249 287 7,500 -1,125 Descending FlightAware ADS-B
Wed 02:42:58 AM 51.3935 -0.2187 95° East 247 284 7,100 -1,091 Descending FlightAware ADS-B
Wed 02:43:14 AM 51.3919 -0.1892 95° East 246 283 6,900 -889 Descending FlightAware ADS-B
Wed 02:43:25 AM 51.3908 -0.1698 95° East 246 283 6,700 -947 Descending FlightAware ADS-B
Wed 02:43:33 AM 51.3907 -0.1558 91° East 244 281 6,600 -750 Descending FlightAware ADS-B
Wed 02:43:41 AM 51.3912 -0.1417 87° East 242 278 6,500 -783 Descending FlightAware ADS-B
Wed 02:43:56 AM 51.3923 -0.1150 86° East 240 276 6,300 -968 Descending FlightAware ADS-B
Wed 02:44:12 AM 51.3937 -0.0858 86° East 239 275 6,000 -968 Descending FlightAware ADS-B
Wed 02:44:27 AM 51.3953 -0.0603 84° East 235 270 5,800 -818 Descending FlightAware ADS-B
Wed 02:44:34 AM 51.3972 -0.0493 75° East 232 267 5,700 -1,000 Descending FlightAware ADS-B
Wed 02:44:45 AM 51.4014 -0.0321 69° East 226 260 5,500 -783 Descending FlightAware ADS-B
Wed 02:44:57 AM 51.4069 -0.0149 63° Northeast 215 247 5,400 -692 Descending FlightAware ADS-B
Wed 02:45:11 AM 51.4172 -0.0020 38° Northeast 196 226 5,200 -706 Descending FlightAware ADS-B
Wed 02:45:14 AM 51.4203 -0.0007 15° North 193 222 5,200 -522 Level FlightAware ADS-B
Wed 02:45:34 AM 51.4367 -0.0049 351° North 183 211 5,000 -529 Descending FlightAware ADS-B
Wed 02:45:48 AM 51.4439 -0.0187 310° West 184 212 4,900 -500 Descending FlightAware ADS-B
Wed 02:45:58 AM 51.4479 -0.0308 298° West 186 214 4,800 -480 Descending FlightAware ADS-B
Wed 02:46:13 AM 51.4536 -0.0498 296° West 189 217 4,700 -176 Descending FlightAware ADS-B
Wed 02:46:32 AM 51.4608 -0.0739 296° West 188 216 4,700 -167 Level FlightAware ADS-B
Wed 02:46:49 AM 51.4670 -0.0946 296° West 187 215 4,600 -649 Descending FlightAware ADS-B
Wed 02:47:09 AM 51.4743 -0.1196 295° West 185 213 4,300 -960 Descending FlightAware ADS-B
Wed 02:47:14 AM 51.4760 -0.1270 290° West 186 214 4,200 -900 Descending FlightAware ADS-B
Wed 02:47:29 AM 51.4778 -0.1472 278° West 187 215 4,000 -4,065 Descending FlightAware ADS-B
Wed 02:47:45 AM 51.4782 -0.1692 278° West 188 216 2,100 -1,080 Descending FlightAware UK
Wed 02:48:19 AM 51.4780 -0.2130 278° West 174 200 3,100 469 Climbing FlightAware ADS-B
Wed 02:48:49 AM 51.4780 -0.2500 270° West 163 188 2,600 -873 Descending FlightAware ADS-B
Wed 02:49:14 AM 51.4780 -0.2770 270° West 159 183 2,300 -2,760 Descending FlightAware ADS-B
Wed 02:49:39 AM 51.4781 -0.3115 270° West 160 184 300 -3,070 Descending FlightAware UK
Wed 02:49:57 AM 51.4779 -0.3332 269° West 158 182 100 1,080 Descending FlightAware UK
Wed 02:50:29 AM 51.4780 -0.3620 269° West 145 167 1,200 280 Climbing FlightAware ADS-B
Wed 02:51:44 AM 51.4780 -0.4150 270° West 140 161 600 -565 Descending FlightAware ADS-B
Wed 02:51:54 AM 51.4780 -0.4290 270° West 134 154 400 -343 Descending FlightAware ADS-B
Wed 02:52:19 AM 51.4770 -0.4530 266° West 134 154 400  Level FlightAware ADS-B

Login

Don't have an account? Register now (free) for customized features, flight alerts, and more!